Time;durP1;ratioP1;P1;durP2;ratioP2;P2;SDS_P1;SDS_P2;PMS_P1;PMS_P2;Temp;Humidity;BMP_temperature;BMP_pressure;BME280_temperature;BME280_humidity;BME280_pressure;Samples;Min_cycle;Max_cycle;Signal;HPM_P1;HPM_P2
2020/12/19 00:00:26;;;;;;;67.47;29.67;;;4.80;99.90;;;;;;4391492;32;20515;-76
2020/12/19 00:02:53;;;;;;;66.30;30.43;;;4.80;99.90;;;;;;4384089;32;20148;-76
2020/12/19 00:05:20;;;;;;;64.30;30.37;;;4.90;99.90;;;;;;4380660;32;20452;-76
2020/12/19 00:07:46;;;;;;;66.30;29.70;;;4.90;99.90;;;;;;4379287;32;20144;-77
2020/12/19 00:10:13;;;;;;;62.00;29.60;;;4.90;99.90;;;;;;4379272;32;20526;-77
2020/12/19 00:12:45;;;;;;;66.73;30.20;;;4.80;99.90;;;;;;4379471;32;20160;-76
2020/12/19 00:15:13;;;;;;;65.47;28.83;;;4.80;99.90;;;;;;4379484;32;20198;-76
2020/12/19 00:17:40;;;;;;;61.83;29.57;;;4.80;99.90;;;;;;4380772;32;20212;-76
2020/12/19 00:20:07;;;;;;;59.20;29.10;;;4.80;99.90;;;;;;4394273;32;20143;-76
2020/12/19 00:22:34;;;;;;;62.87;29.13;;;4.80;99.90;;;;;;4394167;32;20152;-76
2020/12/19 00:25:00;;;;;;;67.93;29.70;;;4.80;99.90;;;;;;4394118;32;20477;-76
2020/12/19 00:27:27;;;;;;;64.90;29.97;;;4.70;99.90;;;;;;4394166;32;20163;-76
2020/12/19 00:29:53;;;;;;;59.30;28.27;;;4.80;99.90;;;;;;4394113;32;20161;-76
2020/12/19 00:32:20;;;;;;;63.77;29.43;;;4.70;99.90;;;;;;4394069;32;20132;-76
2020/12/19 00:34:55;;;;;;;62.07;29.40;;;4.70;99.90;;;;;;4394101;32;20187;-76
2020/12/19 00:37:22;;;;;;;64.87;29.27;;;4.70;99.90;;;;;;4394086;32;20136;-76
2020/12/19 00:39:49;;;;;;;66.13;30.03;;;4.60;99.90;;;;;;4395045;32;20449;-76
2020/12/19 00:42:16;;;;;;;60.60;28.17;;;4.60;99.90;;;;;;4393907;32;20200;-76
2020/12/19 00:44:43;;;;;;;60.47;28.83;;;4.50;99.90;;;;;;4393900;32;20145;-75
2020/12/19 00:47:09;;;;;;;64.33;28.93;;;4.50;99.90;;;;;;4393970;32;20133;-75
2020/12/19 00:49:36;;;;;;;64.87;30.30;;;4.40;99.90;;;;;;4393920;32;20135;-75
2020/12/19 00:52:03;;;;;;;64.07;29.53;;;4.50;99.90;;;;;;4394157;32;20254;-75
2020/12/19 00:54:29;;;;;;;64.73;29.83;;;4.40;99.90;;;;;;4395408;32;20195;-75
2020/12/19 00:56:55;;;;;;;66.20;29.43;;;4.40;99.90;;;;;;4381762;32;20179;-75
2020/12/19 00:59:22;;;;;;;65.00;30.33;;;4.30;99.90;;;;;;4394491;32;20167;-75
2020/12/19 01:01:48;;;;;;;66.13;30.47;;;4.30;99.90;;;;;;4397222;32;20148;-76
2020/12/19 01:04:15;;;;;;;61.80;28.80;;;4.20;99.90;;;;;;4398354;32;20190;-76
2020/12/19 01:06:41;;;;;;;72.50;32.90;;;4.10;99.90;;;;;;4396798;32;20155;-75
2020/12/19 01:09:08;;;;;;;63.50;29.93;;;4.10;99.90;;;;;;4396840;32;20132;-75
2020/12/19 01:11:37;;;;;;;64.43;29.90;;;4.10;99.90;;;;;;4396832;32;20486;-75
2020/12/19 01:14:05;;;;;;;59.53;28.90;;;4.10;99.90;;;;;;4396553;32;20151;-75
2020/12/19 01:16:32;;;;;;;61.00;28.97;;;4.00;99.90;;;;;;4398190;32;20238;-75
2020/12/19 01:18:59;;;;;;;66.93;29.60;;;4.00;99.90;;;;;;4396736;32;20135;-76
2020/12/19 01:21:27;;;;;;;64.30;29.63;;;3.90;99.90;;;;;;4396758;32;20398;-76
2020/12/19 01:23:56;;;;;;;63.57;29.17;;;3.90;99.90;;;;;;4396603;32;20162;-76
2020/12/19 01:26:24;;;;;;;60.53;28.37;;;3.80;99.90;;;;;;4396499;32;20152;-76
2020/12/19 01:28:50;;;;;;;68.17;30.27;;;3.80;99.90;;;;;;4396513;32;20336;-75
2020/12/19 01:31:20;;;;;;;64.67;30.40;;;3.70;99.90;;;;;;4397013;32;20151;-75
2020/12/19 01:33:47;;;;;;;68.27;30.10;;;3.70;99.90;;;;;;4397985;32;20213;-76
2020/12/19 01:36:19;;;;;;;67.53;31.03;;;3.60;99.90;;;;;;4396476;32;20434;-76
2020/12/19 01:38:46;;;;;;;70.67;31.03;;;3.60;99.90;;;;;;4397339;32;20383;-76
2020/12/19 01:41:13;;;;;;;69.90;30.93;;;3.50;99.90;;;;;;4396439;32;20151;-76
2020/12/19 01:43:47;;;;;;;65.10;30.87;;;3.50;99.90;;;;;;4397883;32;20178;-76
2020/12/19 01:46:32;;;;;;;69.40;30.73;;;3.50;99.90;;;;;;4396352;32;20144;-75
2020/12/19 01:49:01;;;;;;;64.10;30.10;;;3.40;99.90;;;;;;4397849;32;20139;-76
2020/12/19 01:51:28;;;;;;;67.70;30.13;;;3.40;99.90;;;;;;4397726;32;20186;-75
2020/12/19 01:53:56;;;;;;;70.97;30.97;;;3.40;99.90;;;;;;4389235;32;20153;-76
2020/12/19 01:56:43;;;;;;;65.50;29.67;;;3.40;99.90;;;;;;4386959;32;20187;-76
2020/12/19 01:59:13;;;;;;;67.13;30.47;;;3.30;99.90;;;;;;4385755;32;20170;-75
2020/12/19 02:01:53;;;;;;;65.67;30.03;;;3.30;99.90;;;;;;4396121;32;20148;-75
2020/12/19 02:04:21;;;;;;;66.50;29.93;;;3.20;99.90;;;;;;4382628;32;20147;-75
2020/12/19 02:07:00;;;;;;;64.07;30.00;;;3.20;99.90;;;;;;4395922;32;20545;-75
2020/12/19 02:09:29;;;;;;;62.40;30.10;;;3.10;99.90;;;;;;4396099;32;20364;-75
2020/12/19 02:11:56;;;;;;;62.63;29.00;;;3.10;99.90;;;;;;4396371;32;20170;-76
2020/12/19 02:14:23;;;;;;;67.30;30.87;;;3.10;99.90;;;;;;4396569;32;20168;-76
2020/12/19 02:17:10;;;;;;;64.00;29.30;;;3.10;99.90;;;;;;4396178;32;20154;-76
2020/12/19 02:19:40;;;;;;;76.37;32.43;;;3.00;99.90;;;;;;4396934;32;20136;-76
2020/12/19 02:22:08;;;;;;;72.47;31.73;;;2.90;99.90;;;;;;4395851;32;20454;-75
2020/12/19 02:24:34;;;;;;;68.33;30.70;;;2.90;99.90;;;;;;4390894;32;20170;-76
2020/12/19 02:27:01;;;;;;;71.73;31.67;;;2.90;99.90;;;;;;4373962;32;20152;-76
2020/12/19 02:29:30;;;;;;;67.03;30.30;;;2.90;99.90;;;;;;4368827;32;20140;-77
2020/12/19 02:31:59;;;;;;;68.70;31.40;;;2.90;99.90;;;;;;4374675;32;20218;-76
2020/12/19 02:34:26;;;;;;;69.53;30.87;;;2.90;99.90;;;;;;4368037;32;20254;-78
2020/12/19 02:36:53;;;;;;;71.50;31.40;;;2.90;99.90;;;;;;4367408;32;20175;-75
2020/12/19 02:39:20;;;;;;;70.37;31.67;;;2.90;99.90;;;;;;4376298;32;20144;-76
2020/12/19 02:41:48;;;;;;;72.87;33.10;;;2.90;99.90;;;;;;4379787;32;20205;-76
2020/12/19 02:44:17;;;;;;;69.50;31.03;;;2.80;99.90;;;;;;4380206;32;20403;-76
2020/12/19 02:46:44;;;;;;;75.63;32.63;;;2.80;99.90;;;;;;4367530;32;20160;-77
2020/12/19 02:49:11;;;;;;;80.37;33.13;;;2.70;99.90;;;;;;4376740;32;20174;-77
2020/12/19 02:51:38;;;;;;;78.80;34.20;;;2.70;99.90;;;;;;4371391;32;20223;-78
2020/12/19 02:54:05;;;;;;;76.93;32.27;;;2.60;99.90;;;;;;4381297;32;20144;-76
2020/12/19 02:56:32;;;;;;;73.13;32.63;;;2.50;99.90;;;;;;4368309;32;20153;-77
2020/12/19 02:58:58;;;;;;;80.87;34.60;;;2.50;99.90;;;;;;4376845;32;20250;-76
2020/12/19 03:01:29;;;;;;;83.07;34.80;;;2.50;99.90;;;;;;4369745;32;20237;-78
2020/12/19 03:03:56;;;;;;;80.97;34.47;;;2.40;99.90;;;;;;4376026;32;20156;-73
2020/12/19 03:06:31;;;;;;;77.73;34.13;;;2.50;99.90;;;;;;4376698;32;20195;-75
2020/12/19 03:08:58;;;;;;;77.07;32.67;;;2.50;99.90;;;;;;4379294;32;20151;-76
2020/12/19 03:11:24;;;;;;;75.87;33.30;;;2.50;99.90;;;;;;4371143;32;20174;-76
2020/12/19 03:13:51;;;;;;;75.47;32.90;;;2.50;99.90;;;;;;4379426;32;20160;-78
2020/12/19 03:16:18;;;;;;;79.80;33.53;;;2.60;99.90;;;;;;4371295;32;20152;-77
2020/12/19 03:18:44;;;;;;;74.00;32.63;;;2.60;99.90;;;;;;4377649;32;20201;-77
2020/12/19 03:21:11;;;;;;;75.27;32.70;;;2.50;99.90;;;;;;4376269;32;20148;-77
2020/12/19 03:23:37;;;;;;;77.43;31.80;;;2.50;99.90;;;;;;4370039;32;20208;-78
2020/12/19 03:26:04;;;;;;;73.63;32.17;;;2.50;99.90;;;;;;4379433;32;20163;-76
2020/12/19 03:28:31;;;;;;;68.77;31.40;;;2.50;99.90;;;;;;4367948;32;20178;-78
2020/12/19 03:30:57;;;;;;;69.17;30.40;;;2.50;99.90;;;;;;4380232;32;20219;-78
2020/12/19 03:33:24;;;;;;;67.77;31.37;;;2.40;99.90;;;;;;4374603;32;20357;-77
2020/12/19 03:35:50;;;;;;;62.67;29.57;;;2.40;99.90;;;;;;4372129;32;20166;-78
2020/12/19 03:38:17;;;;;;;64.97;29.50;;;2.40;99.90;;;;;;4379931;32;20511;-77
2020/12/19 03:40:43;;;;;;;60.27;28.27;;;2.30;99.90;;;;;;4366982;32;20210;-78
2020/12/19 03:43:10;;;;;;;57.60;28.07;;;2.20;99.90;;;;;;4377648;32;20144;-78
2020/12/19 03:45:36;;;;;;;54.93;27.03;;;2.10;99.90;;;;;;4371823;32;20164;-78
2020/12/19 03:48:02;;;;;;;64.97;28.20;;;2.00;99.90;;;;;;4379345;32;20209;-78
2020/12/19 03:50:29;;;;;;;63.53;29.43;;;1.90;99.90;;;;;;4367921;32;20167;-77
2020/12/19 03:52:55;;;;;;;62.07;28.20;;;1.90;99.90;;;;;;4379661;32;20214;-78
2020/12/19 03:55:22;;;;;;;61.07;27.63;;;1.80;99.90;;;;;;4374788;32;20161;-78
2020/12/19 03:57:48;;;;;;;61.97;27.73;;;1.70;99.90;;;;;;4371561;32;20234;-77
2020/12/19 04:00:15;;;;;;;61.00;28.60;;;1.60;99.90;;;;;;4382075;32;20251;-76
2020/12/19 04:02:42;;;;;;;58.93;27.10;;;1.60;99.90;;;;;;4366101;32;20171;-77
2020/12/19 04:05:10;;;;;;;56.93;26.33;;;1.50;99.90;;;;;;4389737;32;20459;-77
2020/12/19 04:07:39;;;;;;;58.57;27.73;;;1.40;99.90;;;;;;4379317;32;20170;-77
2020/12/19 04:10:07;;;;;;;63.00;27.17;;;1.40;99.90;;;;;;4371612;32;20203;-77
2020/12/19 04:12:33;;;;;;;66.77;28.60;;;1.30;99.90;;;;;;4380483;32;20156;-77
2020/12/19 04:15:00;;;;;;;57.90;27.30;;;1.30;99.90;;;;;;4366416;32;20235;-77
2020/12/19 04:17:26;;;;;;;64.93;28.00;;;1.30;99.90;;;;;;4379584;32;20142;-77
2020/12/19 04:19:52;;;;;;;81.17;29.27;;;1.30;99.90;;;;;;4371310;32;20174;-78
2020/12/19 04:22:19;;;;;;;65.83;27.50;;;1.30;99.90;;;;;;4375613;32;20175;-77
2020/12/19 04:24:45;;;;;;;63.00;28.13;;;1.30;99.90;;;;;;4379578;32;20191;-77
2020/12/19 04:27:12;;;;;;;57.83;27.23;;;1.30;99.90;;;;;;4367140;32;20160;-77
2020/12/19 04:29:38;;;;;;;62.33;28.47;;;1.20;99.90;;;;;;4378964;32;20182;-78
2020/12/19 04:32:04;;;;;;;59.97;27.17;;;1.20;99.90;;;;;;4369992;32;20170;-78
2020/12/19 04:34:31;;;;;;;60.10;26.57;;;1.20;99.90;;;;;;4375197;32;20155;-78
2020/12/19 04:36:57;;;;;;;65.67;27.80;;;1.20;99.90;;;;;;4376882;32;20218;-78
2020/12/19 04:39:24;;;;;;;64.00;27.90;;;1.20;99.90;;;;;;4369354;32;20457;-77
2020/12/19 04:41:50;;;;;;;63.90;28.30;;;1.20;99.90;;;;;;4380240;32;20151;-78
2020/12/19 04:44:19;;;;;;;59.90;27.77;;;1.20;99.90;;;;;;4369572;32;20181;-78
2020/12/19 04:46:45;;;;;;;68.60;28.43;;;1.20;99.90;;;;;;4376612;32;20280;-79
2020/12/19 04:49:12;;;;;;;67.23;28.47;;;1.20;99.90;;;;;;4375271;32;20148;-77
2020/12/19 04:51:39;;;;;;;85.57;29.03;;;1.20;99.90;;;;;;4369758;32;20172;-77
2020/12/19 04:54:06;;;;;;;77.73;28.40;;;1.20;99.90;;;;;;4376716;32;20187;-77
2020/12/19 04:56:33;;;;;;;79.00;29.27;;;1.20;99.90;;;;;;4377734;32;20220;-77
2020/12/19 04:59:02;;;;;;;71.50;29.10;;;1.20;99.90;;;;;;4378381;32;20199;-77
2020/12/19 05:01:29;;;;;;;69.77;28.73;;;1.30;99.90;;;;;;4378879;32;20139;-77
2020/12/19 05:03:56;;;;;;;68.23;28.77;;;1.30;99.90;;;;;;4378913;32;20171;-77
2020/12/19 05:06:24;;;;;;;69.50;28.23;;;1.30;99.90;;;;;;4378760;32;20174;-77
2020/12/19 05:08:51;;;;;;;71.63;29.57;;;1.30;99.90;;;;;;4378783;32;20148;-78
2020/12/19 05:11:19;;;;;;;68.20;28.10;;;1.30;99.90;;;;;;4379897;32;20140;-77
2020/12/19 05:13:46;;;;;;;69.00;28.80;;;1.40;99.90;;;;;;4378357;32;20537;-77
2020/12/19 05:16:15;;;;;;;73.43;27.93;;;1.40;99.90;;;;;;4378906;32;20474;-76
2020/12/19 05:18:42;;;;;;;64.07;27.67;;;1.40;99.90;;;;;;4378983;32;20148;-76
2020/12/19 05:21:11;;;;;;;70.17;28.30;;;1.40;99.90;;;;;;4377851;32;20171;-76
2020/12/19 05:23:40;;;;;;;61.73;26.40;;;1.40;99.90;;;;;;4382154;32;20470;-76
2020/12/19 05:26:09;;;;;;;67.30;27.00;;;1.40;99.90;;;;;;4387042;32;20147;-77
2020/12/19 05:28:38;;;;;;;63.47;27.67;;;1.40;99.90;;;;;;4393306;32;20183;-77
2020/12/19 05:31:06;;;;;;;68.43;28.67;;;1.40;99.90;;;;;;4393920;32;20151;-77
2020/12/19 05:33:38;;;;;;;63.13;26.93;;;1.30;99.90;;;;;;4370586;32;20210;-77
2020/12/19 05:36:06;;;;;;;70.67;27.37;;;1.30;99.90;;;;;;4363832;33;20182;-76
2020/12/19 05:38:38;;;;;;;68.77;28.43;;;1.40;99.90;;;;;;4363710;33;20198;-77
2020/12/19 05:41:05;;;;;;;67.30;28.33;;;1.40;99.90;;;;;;4365090;32;20305;-78
2020/12/19 05:43:32;;;;;;;69.50;27.47;;;1.40;99.90;;;;;;4364637;32;20198;-78
2020/12/19 05:45:59;;;;;;;66.33;27.87;;;1.40;99.90;;;;;;4363119;32;20179;-78
2020/12/19 05:48:26;;;;;;;67.20;27.87;;;1.40;99.90;;;;;;4392000;32;20544;-78
2020/12/19 05:50:52;;;;;;;80.43;27.97;;;1.30;99.90;;;;;;4396356;32;20223;-78
2020/12/19 05:53:20;;;;;;;68.00;28.83;;;1.30;99.90;;;;;;4396313;32;20171;-78
2020/12/19 05:55:47;;;;;;;66.20;28.60;;;1.40;99.90;;;;;;4397617;32;20131;-78
2020/12/19 05:58:15;;;;;;;64.30;27.27;;;1.30;99.90;;;;;;4383430;32;20156;-78
2020/12/19 06:00:42;;;;;;;64.17;27.60;;;1.30;99.90;;;;;;4381038;32;20144;-77
2020/12/19 06:03:10;;;;;;;69.30;28.17;;;1.30;99.90;;;;;;4367148;32;20168;-78
2020/12/19 06:05:36;;;;;;;82.10;28.30;;;1.20;99.90;;;;;;4382436;32;20147;-78
2020/12/19 06:08:19;;;;;;;70.57;28.60;;;1.10;99.90;;;;;;4390633;32;20151;-77
2020/12/19 06:10:46;;;;;;;80.60;28.70;;;1.20;99.90;;;;;;4396185;32;20192;-77
2020/12/19 06:13:18;;;;;;;68.17;27.63;;;1.20;99.90;;;;;;4396258;32;20143;-78
2020/12/19 06:15:55;;;;;;;66.27;25.77;;;1.20;99.90;;;;;;4395821;32;20217;-78
2020/12/19 06:18:36;;;;;;;76.63;27.67;;;1.20;99.90;;;;;;4397438;32;20144;-77
2020/12/19 06:21:07;;;;;;;65.87;25.47;;;1.20;99.90;;;;;;4397357;32;20207;-77
2020/12/19 06:23:35;;;;;;;55.80;25.57;;;1.30;99.90;;;;;;4395947;32;20179;-78
2020/12/19 06:26:13;;;;;;;59.53;25.23;;;1.20;99.90;;;;;;4381931;32;20212;-78
2020/12/19 06:28:40;;;;;;;54.80;24.13;;;1.20;99.90;;;;;;4383606;32;20236;-78
2020/12/19 06:31:08;;;;;;;66.60;25.07;;;1.20;99.90;;;;;;4368996;32;20222;-77
2020/12/19 06:33:35;;;;;;;63.63;25.87;;;1.10;99.90;;;;;;4375769;32;20204;-77
2020/12/19 06:36:16;;;;;;;58.90;24.43;;;1.10;99.90;;;;;;4365433;32;20148;-77
2020/12/19 06:39:10;;;;;;;54.27;23.87;;;1.10;99.90;;;;;;4364189;32;20206;-77
2020/12/19 06:41:48;;;;;;;57.43;24.63;;;1.00;99.90;;;;;;4363502;33;20574;-78
2020/12/19 06:44:27;;;;;;;57.90;24.47;;;1.00;99.90;;;;;;4365474;32;20199;-77
2020/12/19 06:46:55;;;;;;;56.90;23.83;;;1.00;99.90;;;;;;4366859;32;20432;-77
2020/12/19 06:49:25;;;;;;;57.47;24.67;;;0.90;99.90;;;;;;4365607;32;20203;-77
2020/12/19 06:52:12;;;;;;;58.37;24.70;;;0.90;99.90;;;;;;4365944;32;20145;-77
2020/12/19 06:54:48;;;;;;;56.37;24.47;;;0.90;99.90;;;;;;4364922;32;20132;-77
2020/12/19 06:57:26;;;;;;;61.70;24.93;;;0.90;99.90;;;;;;4365374;32;20163;-77
2020/12/19 06:59:55;;;;;;;54.97;24.57;;;0.90;99.90;;;;;;4365346;32;20140;-80
2020/12/19 07:02:25;;;;;;;61.40;25.40;;;0.90;99.90;;;;;;4365324;32;20137;-80
2020/12/19 07:04:53;;;;;;;58.07;24.77;;;1.00;99.90;;;;;;4365214;32;20440;-80
2020/12/19 07:07:24;;;;;;;54.50;24.80;;;0.90;99.90;;;;;;4366456;32;20255;-81
2020/12/19 07:09:58;;;;;;;54.37;23.50;;;1.00;99.90;;;;;;4364868;32;20140;-78
2020/12/19 07:12:29;;;;;;;55.03;23.33;;;1.00;99.90;;;;;;4372963;32;20181;-77
2020/12/19 07:14:55;;;;;;;60.27;25.00;;;1.10;99.90;;;;;;4371627;32;20205;-78
2020/12/19 07:17:22;;;;;;;57.40;22.93;;;1.10;99.90;;;;;;4372888;32;20156;-79
2020/12/19 07:20:00;;;;;;;55.40;23.97;;;1.10;99.90;;;;;;4372513;32;20159;-79
2020/12/19 07:22:27;;;;;;;57.27;24.03;;;1.10;99.90;;;;;;4372869;32;20198;-78
2020/12/19 07:24:54;;;;;;;62.07;25.37;;;1.10;99.90;;;;;;4367941;32;20186;-77
2020/12/19 07:27:22;;;;;;;59.00;24.63;;;1.10;99.90;;;;;;4367764;32;20167;-78
2020/12/19 07:29:49;;;;;;;58.23;23.80;;;1.10;99.90;;;;;;4371631;32;20168;-77
2020/12/19 07:32:15;;;;;;;59.23;25.23;;;1.20;99.90;;;;;;4373771;32;20218;-80
2020/12/19 07:34:42;;;;;;;58.37;25.17;;;1.20;99.90;;;;;;4363214;32;20167;-79
2020/12/19 07:37:10;;;;;;;63.10;25.50;;;1.30;99.90;;;;;;4364357;32;20170;-79
2020/12/19 07:39:36;;;;;;;61.93;25.83;;;1.30;99.90;;;;;;4365577;32;20154;-79
2020/12/19 07:42:09;;;;;;;65.60;25.83;;;1.20;99.90;;;;;;4365260;32;20148;-82
2020/12/19 07:44:36;;;;;;;61.33;25.53;;;1.20;99.90;;;;;;4366212;32;20180;-82
2020/12/19 07:47:10;;;;;;;63.30;26.17;;;1.10;99.90;;;;;;4365900;32;20160;-77
2020/12/19 07:49:45;;;;;;;64.47;26.87;;;1.10;99.90;;;;;;4351276;33;20140;-79
2020/12/19 07:52:11;;;;;;;63.77;26.63;;;1.20;99.90;;;;;;4365889;32;20144;-77
2020/12/19 07:54:39;;;;;;;64.43;26.13;;;1.20;99.90;;;;;;4364393;32;20140;-78
2020/12/19 07:57:10;;;;;;;63.30;26.40;;;1.40;99.90;;;;;;4365858;32;20198;-78
2020/12/19 07:59:40;;;;;;;67.93;27.27;;;1.40;99.90;;;;;;4365210;32;20427;-80
2020/12/19 08:02:07;;;;;;;67.57;26.70;;;1.40;99.90;;;;;;4364272;32;20163;-79
2020/12/19 08:04:33;;;;;;;65.93;27.00;;;1.30;99.90;;;;;;4364231;32;20493;-78
2020/12/19 08:07:00;;;;;;;68.27;27.27;;;1.20;99.90;;;;;;4364252;32;20210;-83
2020/12/19 08:09:31;;;;;;;67.37;26.90;;;1.30;99.90;;;;;;4364414;32;20190;-78
2020/12/19 08:12:01;;;;;;;70.43;27.77;;;1.40;99.90;;;;;;4364507;32;20187;-78
2020/12/19 08:14:28;;;;;;;65.03;26.50;;;1.40;99.90;;;;;;4365008;32;20160;-79
2020/12/19 08:16:55;;;;;;;68.70;28.00;;;1.50;99.90;;;;;;4364094;32;20544;-78
2020/12/19 08:19:35;;;;;;;68.37;26.93;;;1.50;99.90;;;;;;4364233;32;20420;-79
2020/12/19 08:22:04;;;;;;;65.80;26.60;;;1.40;99.90;;;;;;4364188;32;20167;-79
2020/12/19 08:24:30;;;;;;;69.10;27.27;;;1.40;99.90;;;;;;4364147;32;20159;-78
2020/12/19 08:27:31;;;;;;;66.40;27.60;;;1.40;99.90;;;;;;4364402;32;20164;-78
2020/12/19 08:30:08;;;;;;;69.47;27.77;;;1.40;99.90;;;;;;4364004;32;20151;-77
2020/12/19 08:32:35;;;;;;;65.53;27.30;;;1.50;99.90;;;;;;4364633;32;20194;-78
2020/12/19 08:35:03;;;;;;;66.77;27.10;;;1.60;99.90;;;;;;4363737;32;20140;-76
2020/12/19 08:37:30;;;;;;;70.43;27.00;;;1.60;99.90;;;;;;4363545;32;20136;-78
2020/12/19 08:40:10;;;;;;;72.17;27.83;;;1.60;99.90;;;;;;4364362;32;20144;-77
2020/12/19 08:42:43;;;;;;;69.80;27.30;;;1.60;99.90;;;;;;4365385;33;20179;-78
2020/12/19 08:45:33;;;;;;;74.60;26.93;;;1.60;99.90;;;;;;4364112;33;20201;-78
2020/12/19 08:48:04;;;;;;;66.30;26.93;;;1.60;99.90;;;;;;4355536;33;20301;-78
2020/12/19 08:50:41;;;;;;;67.63;25.40;;;1.60;99.90;;;;;;4364724;33;20394;-78
2020/12/19 08:53:09;;;;;;;83.30;24.50;;;1.70;99.90;;;;;;4365302;33;20195;-78
2020/12/19 08:55:36;;;;;;;60.00;24.53;;;1.50;99.90;;;;;;4364988;33;20526;-77
2020/12/19 08:58:04;;;;;;;60.07;23.13;;;1.40;99.90;;;;;;4365210;33;20166;-76
2020/12/19 09:00:38;;;;;;;66.17;24.73;;;1.30;99.90;;;;;;4363481;33;20533;-77
2020/12/19 09:03:07;;;;;;;66.50;23.63;;;1.40;99.90;;;;;;4365122;33;20132;-78
2020/12/19 09:05:42;;;;;;;60.43;23.70;;;1.40;99.90;;;;;;4363596;33;20196;-77
2020/12/19 09:08:11;;;;;;;56.20;24.00;;;1.40;99.90;;;;;;4365070;33;20159;-77
2020/12/19 09:10:39;;;;;;;57.07;23.07;;;1.40;99.90;;;;;;4364729;33;20148;-77
2020/12/19 09:13:21;;;;;;;57.93;23.80;;;1.30;99.90;;;;;;4364698;33;20183;-77
2020/12/19 09:15:48;;;;;;;63.00;24.10;;;1.40;99.90;;;;;;4363287;33;20164;-77
2020/12/19 09:18:21;;;;;;;60.63;23.40;;;1.50;99.90;;;;;;4364929;33;20147;-78
2020/12/19 09:20:55;;;;;;;63.63;23.77;;;1.50;99.90;;;;;;4366246;32;20133;-78
2020/12/19 09:23:23;;;;;;;60.77;23.80;;;1.50;99.90;;;;;;4366640;32;20223;-77
2020/12/19 09:25:51;;;;;;;57.30;23.23;;;1.60;99.90;;;;;;4366563;32;20156;-76
2020/12/19 09:28:17;;;;;;;55.00;22.37;;;1.60;99.90;;;;;;4365627;32;20136;-76
2020/12/19 09:30:44;;;;;;;54.47;22.30;;;1.60;99.90;;;;;;4366098;32;20463;-77
2020/12/19 09:33:11;;;;;;;47.40;20.23;;;1.70;99.90;;;;;;4366125;32;20145;-76
2020/12/19 09:35:37;;;;;;;50.00;20.23;;;1.50;99.90;;;;;;4365861;32;20200;-77
2020/12/19 09:38:04;;;;;;;47.00;18.77;;;1.50;99.90;;;;;;4367120;32;20202;-76
2020/12/19 09:40:31;;;;;;;47.30;20.17;;;1.40;99.90;;;;;;4366224;32;20164;-76
2020/12/19 09:42:58;;;;;;;46.80;20.43;;;1.30;99.90;;;;;;4366393;32;20158;-77
2020/12/19 09:45:25;;;;;;;51.10;20.60;;;1.40;99.90;;;;;;4366252;32;20216;-77
2020/12/19 09:47:52;;;;;;;50.73;20.30;;;1.40;99.90;;;;;;4367482;32;20159;-76
2020/12/19 09:50:19;;;;;;;50.73;20.40;;;1.40;99.90;;;;;;4365207;32;20166;-77
2020/12/19 09:52:46;;;;;;;51.17;21.20;;;1.50;99.90;;;;;;4366063;32;20469;-76
2020/12/19 09:55:13;;;;;;;50.90;21.00;;;1.60;99.90;;;;;;4365954;32;20179;-76
2020/12/19 09:57:40;;;;;;;49.17;20.47;;;1.70;99.90;;;;;;4366160;32;20484;-77
2020/12/19 10:00:08;;;;;;;45.47;19.93;;;1.80;99.90;;;;;;4366044;32;20182;-75
2020/12/19 10:02:34;;;;;;;46.73;19.97;;;1.80;99.90;;;;;;4365560;32;20355;-75
2020/12/19 10:05:06;;;;;;;46.00;19.63;;;1.80;99.90;;;;;;4365376;32;20183;-76
2020/12/19 10:07:33;;;;;;;45.77;19.83;;;1.90;99.90;;;;;;4365790;32;20148;-77
2020/12/19 10:09:59;;;;;;;43.23;19.77;;;1.90;99.90;;;;;;4367172;32;20162;-76
2020/12/19 10:12:26;;;;;;;45.87;19.40;;;2.00;99.90;;;;;;4367235;32;20225;-77
2020/12/19 10:14:52;;;;;;;47.20;20.03;;;2.00;99.90;;;;;;4364766;32;20156;-75
2020/12/19 10:17:18;;;;;;;39.53;17.70;;;2.10;99.90;;;;;;4365675;32;20132;-77
2020/12/19 10:19:45;;;;;;;40.10;17.57;;;2.20;99.90;;;;;;4366939;32;20159;-78
2020/12/19 10:22:12;;;;;;;38.17;18.00;;;2.10;99.90;;;;;;4365383;32;20137;-77
2020/12/19 10:24:40;;;;;;;42.03;18.07;;;2.10;99.90;;;;;;4366784;32;20460;-77
2020/12/19 10:27:06;;;;;;;42.90;18.17;;;2.00;99.90;;;;;;4366726;32;20229;-76
2020/12/19 10:29:32;;;;;;;43.03;18.00;;;1.90;99.90;;;;;;4365746;32;20160;-78
2020/12/19 10:31:59;;;;;;;45.53;18.87;;;1.90;99.90;;;;;;4365011;32;20148;-76
2020/12/19 10:34:25;;;;;;;40.57;17.60;;;1.80;99.90;;;;;;4366884;32;20232;-77
2020/12/19 10:36:52;;;;;;;44.87;18.33;;;1.90;99.90;;;;;;4366757;32;20201;-80
2020/12/19 10:39:19;;;;;;;44.80;18.57;;;1.90;99.90;;;;;;4366575;32;20152;-77
2020/12/19 10:41:49;;;;;;;43.83;19.23;;;2.00;99.90;;;;;;4366683;32;20179;-77
2020/12/19 10:44:16;;;;;;;38.97;17.03;;;2.10;99.90;;;;;;4365138;32;20172;-78
2020/12/19 10:46:43;;;;;;;42.50;17.87;;;1.90;99.90;;;;;;4365471;32;20190;-78
2020/12/19 10:49:09;;;;;;;42.30;17.83;;;1.80;99.90;;;;;;4365241;32;20252;-76
2020/12/19 10:51:36;;;;;;;41.53;17.97;;;1.90;99.90;;;;;;4366141;32;20171;-76
2020/12/19 10:54:03;;;;;;;43.27;18.53;;;1.90;99.90;;;;;;4366494;32;20145;-76
2020/12/19 10:56:29;;;;;;;44.30;17.60;;;1.90;99.90;;;;;;4366801;32;20152;-76
2020/12/19 10:58:55;;;;;;;41.00;17.60;;;1.90;99.90;;;;;;4365909;32;20265;-73
2020/12/19 11:01:22;;;;;;;38.50;17.53;;;1.90;99.90;;;;;;4363476;32;20532;-77
2020/12/19 11:03:48;;;;;;;37.40;16.43;;;1.80;99.90;;;;;;4363737;32;20152;-77
2020/12/19 11:06:33;;;;;;;37.30;17.10;;;1.90;99.90;;;;;;4363522;32;20198;-77
2020/12/19 11:08:59;;;;;;;39.20;17.03;;;1.90;99.90;;;;;;4366360;32;20201;-77
2020/12/19 11:11:26;;;;;;;39.33;16.73;;;2.00;99.90;;;;;;4366375;32;20414;-78
2020/12/19 11:13:53;;;;;;;37.93;16.77;;;2.10;99.90;;;;;;4364362;32;20149;-77
2020/12/19 11:16:27;;;;;;;35.33;15.50;;;2.10;99.90;;;;;;4366385;32;20193;-77
2020/12/19 11:18:55;;;;;;;36.10;16.07;;;2.00;99.90;;;;;;4366215;32;20166;-77
2020/12/19 11:21:22;;;;;;;39.03;16.30;;;1.90;99.90;;;;;;4365741;32;20427;-77
2020/12/19 11:23:48;;;;;;;39.47;16.90;;;2.00;99.90;;;;;;4365642;32;20160;-77
2020/12/19 11:26:20;;;;;;;39.03;15.70;;;2.00;99.90;;;;;;4364793;32;20167;-78
2020/12/19 11:28:48;;;;;;;37.07;16.27;;;1.90;99.90;;;;;;4366125;32;20167;-77
2020/12/19 11:31:16;;;;;;;36.17;16.57;;;2.00;99.90;;;;;;4366152;32;20168;-77
2020/12/19 11:33:42;;;;;;;39.23;16.67;;;1.90;99.90;;;;;;4366153;32;20152;-77
2020/12/19 11:36:14;;;;;;;37.70;16.63;;;1.90;99.90;;;;;;4366160;32;20458;-77
2020/12/19 11:38:40;;;;;;;39.07;17.27;;;1.80;99.90;;;;;;4364762;32;20204;-77
2020/12/19 11:41:07;;;;;;;40.30;17.13;;;1.80;99.90;;;;;;4364603;32;20223;-78
2020/12/19 11:43:33;;;;;;;38.07;17.63;;;1.80;99.90;;;;;;4364441;32;20149;-77
2020/12/19 11:46:00;;;;;;;41.07;17.20;;;1.90;99.90;;;;;;4364277;32;20148;-77
2020/12/19 11:48:26;;;;;;;39.33;16.63;;;2.00;99.90;;;;;;4364560;32;20490;-77
2020/12/19 11:50:53;;;;;;;37.90;16.37;;;2.00;99.90;;;;;;4364352;32;20141;-78
2020/12/19 11:53:19;;;;;;;35.17;15.67;;;2.00;99.90;;;;;;4365804;32;20192;-77
2020/12/19 11:55:46;;;;;;;37.70;16.20;;;1.90;99.90;;;;;;4364436;32;20226;-78
2020/12/19 11:58:12;;;;;;;35.77;15.43;;;1.90;99.90;;;;;;4364237;32;20147;-77
2020/12/19 12:00:38;;;;;;;36.20;16.43;;;1.90;99.90;;;;;;4365664;32;20190;-77
2020/12/19 12:03:07;;;;;;;33.13;15.57;;;2.10;99.90;;;;;;4365560;32;20141;-77
2020/12/19 12:05:34;;;;;;;35.57;16.47;;;2.10;99.90;;;;;;4363959;32;20415;-77
2020/12/19 12:08:01;;;;;;;35.27;16.53;;;2.20;99.90;;;;;;4363822;32;20206;-76
2020/12/19 12:10:27;;;;;;;32.40;15.40;;;2.20;99.90;;;;;;4363608;32;20446;-77
2020/12/19 12:12:53;;;;;;;33.37;14.70;;;2.20;99.90;;;;;;4365068;32;20370;-81
2020/12/19 12:15:20;;;;;;;30.63;14.37;;;2.00;99.90;;;;;;4364325;32;20513;-85
2020/12/19 12:17:46;;;;;;;30.87;14.60;;;1.90;99.90;;;;;;4364345;32;20160;-82
2020/12/19 12:20:17;;;;;;;32.70;14.80;;;1.80;99.90;;;;;;4363952;32;20170;-77
2020/12/19 12:22:45;;;;;;;35.10;14.93;;;1.70;99.90;;;;;;4363868;32;20371;-77
2020/12/19 12:25:13;;;;;;;31.93;14.77;;;1.80;99.90;;;;;;4365418;32;20381;-76
2020/12/19 12:27:39;;;;;;;36.03;15.53;;;2.00;99.90;;;;;;4363335;32;20194;-77
2020/12/19 12:30:07;;;;;;;35.37;15.43;;;2.10;99.90;;;;;;4365423;32;20172;-78
2020/12/19 12:32:33;;;;;;;36.63;16.07;;;2.10;99.90;;;;;;4364700;32;20179;-78
2020/12/19 12:34:59;;;;;;;33.50;16.20;;;2.20;99.90;;;;;;4363876;32;20195;-78
2020/12/19 12:37:26;;;;;;;31.73;14.77;;;2.20;99.90;;;;;;4365259;32;20172;-79
2020/12/19 12:39:53;;;;;;;31.03;14.60;;;2.30;99.90;;;;;;4363701;32;20167;-78
2020/12/19 12:42:21;;;;;;;31.03;14.37;;;2.40;99.90;;;;;;4364249;32;20449;-79